Aviation Digital Data Service (ADDS)

Output produced by METARs form (0209 UTC 26 April 2017)
found at http://www.aviationweather.gov/adds/metars/
 
TAF LRTZ 252300Z 2600/2700 15010KT 9999 SKC 
     TEMPO 2602/2606 3000 BR SCT005 
     TEMPO 2620/2700 3000 BR SCT005
       
LRCK 260200Z 13005KT 7000 MIFG NSC 06/05 Q1020 TEMPO 5000 BR
TAF LRCK 252300Z 2600/2624 17006KT CAVOK 
     TEMPO 2600/2605 3000 BR 
     BECMG 2606/2608 14016KT
       
LRTC 260200Z AUTO 16008KT 9999 NCD 06/06 Q1020
TAF LRBO 252300Z 2600/2700 22008KT 9999 SKC 
     BECMG 2606/2608 22014G24KT SCT034 SCT100 
     BECMG 2616/2618 22010KT FEW100
       
LRBC 260200Z 17015KT CAVOK 06/04 Q1017
TAF LRBC 251700Z 2518/2603 15010KT CAVOK
       
LRIA 260200Z 11012KT CAVOK 07/01 Q1016 R14/09//95
TAF LRIA 252300Z 2600/2609 13010KT CAVOK
       
LRSV 260200Z 21009KT CAVOK 08/02 Q1014
TAF LRSV 252300Z 2600/2609 20007KT CAVOK
       
LROP 260200Z 05003KT CAVOK 05/03 Q1018 NOSIG
TAF LROP 252300Z 2600/2624 VRB04KT CAVOK
       
LRBS 260200Z 06002KT CAVOK 06/03 Q1018 NOSIG
TAF LRBS 252300Z 2600/2624 VRB04KT CAVOK
       
LRCV 260200Z 04006KT CAVOK 07/04 Q1016
TAF LRCV 252300Z 2600/2609 06006KT CAVOK
       
LRSB 260200Z 16006KT CAVOK 13/01 Q1015
TAF LRSB 252300Z 2600/2624 VRB04KT CAVOK 
     TEMPO 2600/2605 3000 BR
       
LRAR 260200Z 19008KT CAVOK 12/06 Q1013
TAF LRAR 252300Z 2600/2609 19010KT CAVOK
       
LRCL 260200Z 08006KT CAVOK 10/03 Q1014
TAF LRCL 252300Z 2600/2609 VRB04KT CAVOK
       
LRTR 260200Z 19009KT CAVOK 12/05 Q1013
TAF LRTR 252300Z 2600/2624 16005KT CAVOK 
     BECMG 2607/2609 18015KT 
     TEMPO 2609/2614 19015G25KT
       
LRTM 260200Z AUTO 09005KT 9999 NCD 06/03 Q1015
LRBM 260200Z AUTO 06005KT 9999 FEW045/// SCT180/// BKN240/// 10/06 Q1013
LRSM 260200Z AUTO 19008KT 9999 +RA FEW120/// 11/06 Q1012
LROD 260200Z AUTO 19013KT 9999 FEW085/// 13/05 Q1012
TAF LROD 251700Z 2518/2603 19012KT CAVOK
       
LRCT 252300Z 20005KT 9999 SKC 08/03 Q1015 BLU BLU
TAF LRCT 252300Z 2600/2700 20004KT 9999 SKC 
     PROB40 
     TEMPO 2602/2604 VRB02KT 5000 BR 
     BECMG 2608/2610 18010KT FEW200 
     TEMPO 2610/2614 20015KT FEW050 SCT100